Time;durP1;ratioP1;P1;durP2;ratioP2;P2;SDS_P1;SDS_P2;PMS_P1;PMS_P2;Temp;Humidity;BMP_temperature;BMP_pressure;BME280_temperature;BME280_humidity;BME280_pressure;Samples;Min_cycle;Max_cycle;Signal;HPM_P1;HPM_P2
2021/12/24 00:00:19;;;;;;;15.05;7.95;;;8.20;99.90;;;;;;5041198;28;20503;-85
2021/12/24 00:02:45;;;;;;;12.20;7.68;;;6.20;99.90;;;;;;5042536;28;20408;-85
2021/12/24 00:05:11;;;;;;;16.85;8.55;;;6.80;99.90;;;;;;5042435;28;20048;-85
2021/12/24 00:07:37;;;;;;;16.08;8.60;;;6.20;99.90;;;;;;5042487;28;20491;-85
2021/12/24 00:10:06;;;;;;;19.60;8.75;;;6.20;99.90;;;;;;5044708;28;20080;-85
2021/12/24 00:12:35;;;;;;;12.88;7.90;;;6.20;99.90;;;;;;5039983;28;20048;-85
2021/12/24 00:15:11;;;;;;;15.63;8.25;;;6.20;99.90;;;;;;5045156;28;20568;-85
2021/12/24 00:17:38;;;;;;;13.07;7.22;;;6.20;99.90;;;;;;5029108;28;20457;-85
2021/12/24 00:36:03;;;;;;;11.98;7.60;;;6.40;99.90;;;;;;5047128;28;20052;-85
2021/12/24 00:38:29;;;;;;;12.50;7.10;;;6.30;99.90;;;;;;5043859;28;20078;-85
2021/12/24 00:40:55;;;;;;;14.65;6.90;;;6.30;99.90;;;;;;5046419;28;20112;-85
2021/12/24 00:43:21;;;;;;;9.90;6.72;;;7.70;99.90;;;;;;5029037;28;20167;-85
2021/12/24 00:45:49;;;;;;;12.27;6.53;;;7.80;99.90;;;;;;5028413;28;20055;-85
2021/12/24 00:48:18;;;;;;;11.15;6.25;;;6.40;99.90;;;;;;5046706;28;20527;-85
2021/12/24 00:51:16;;;;;;;8.95;5.65;;;6.80;99.90;;;;;;5043822;28;20076;-87
2021/12/24 00:56:08;;;;;;;11.38;6.40;;;6.40;99.90;;;;;;5061961;28;20519;-85
2021/12/24 00:58:34;;;;;;;10.10;5.53;;;7.30;99.90;;;;;;5045030;28;20049;-85
2021/12/24 01:01:00;;;;;;;9.38;5.60;;;6.40;99.90;;;;;;5047069;28;20041;-85
2021/12/24 01:03:27;;;;;;;10.13;5.70;;;6.30;99.90;;;;;;5043312;28;20091;-85
2021/12/24 01:05:53;;;;;;;13.57;6.00;;;6.30;99.90;;;;;;5047574;28;20048;-85
2021/12/24 01:08:19;;;;;;;10.25;5.75;;;6.30;99.90;;;;;;5027403;28;20137;-85
2021/12/24 01:10:49;;;;;;;8.65;5.80;;;6.30;99.90;;;;;;5045712;28;20076;-84
2021/12/24 01:13:15;;;;;;;12.82;6.05;;;6.30;99.90;;;;;;5046384;28;20473;-85
2021/12/24 01:15:53;;;;;;;12.20;6.00;;;6.30;99.90;;;;;;5046057;28;20479;-84
2021/12/24 01:18:30;;;;;;;8.52;4.93;;;6.30;99.90;;;;;;5046283;28;20099;-85
2021/12/24 01:21:14;;;;;;;10.05;5.53;;;8.00;99.90;;;;;;5045061;28;20443;-85
2021/12/24 01:23:52;;;;;;;7.90;4.65;;;7.30;99.90;;;;;;5045982;28;20483;-84
2021/12/24 01:27:18;;;;;;;8.65;5.68;;;6.40;99.90;;;;;;5045839;28;20073;-84
2021/12/24 01:42:45;;;;;;;6.50;3.90;;;6.50;99.90;;;;;;5043355;28;20060;-84
2021/12/24 01:45:22;;;;;;;7.10;4.22;;;6.50;99.90;;;;;;5044818;28;20488;-84
2021/12/24 01:47:51;;;;;;;7.40;4.15;;;6.50;99.90;;;;;;5028487;28;20091;-84
2021/12/24 01:50:18;;;;;;;6.50;4.38;;;6.50;99.90;;;;;;5026596;28;20061;-84
2021/12/24 01:52:44;;;;;;;5.85;3.58;;;6.60;99.90;;;;;;5047201;28;20494;-84
2021/12/24 01:55:11;;;;;;;5.57;3.80;;;6.60;99.90;;;;;;5044164;28;20072;-84
2021/12/24 01:57:38;;;;;;;5.72;3.78;;;6.60;99.90;;;;;;5047211;28;20045;-84
2021/12/24 02:00:07;;;;;;;5.30;3.30;;;7.10;99.90;;;;;;5026811;28;20056;-84
2021/12/24 02:02:32;;;;;;;4.82;3.15;;;6.70;99.90;;;;;;5044464;28;20045;-84
2021/12/24 02:04:58;;;;;;;5.20;3.30;;;8.20;99.90;;;;;;5045159;28;20045;-83
2021/12/24 02:07:24;;;;;;;6.63;2.97;;;6.70;99.90;;;;;;5025988;28;20052;-82
2021/12/24 02:09:50;;;;;;;5.00;3.03;;;6.70;99.90;;;;;;5062257;28;20045;-83
2021/12/24 02:12:16;;;;;;;5.90;2.90;;;7.20;99.90;;;;;;5042095;28;20531;-83
2021/12/24 02:14:47;;;;;;;5.03;3.03;;;6.80;99.90;;;;;;5045164;28;20048;-83
2021/12/24 02:18:04;;;;;;;5.88;2.80;;;6.80;99.90;;;;;;5026747;28;20041;-84
2021/12/24 02:28:45;;;;;;;5.47;2.58;;;6.90;99.90;;;;;;5045161;28;20037;-83
2021/12/24 02:31:09;;;;;;;3.55;2.28;;;8.10;99.90;;;;;;5046316;28;20412;-83
2021/12/24 02:33:34;;;;;;;5.68;2.55;;;6.90;99.90;;;;;;5041970;28;20076;-83
2021/12/24 02:36:00;;;;;;;4.32;2.30;;;6.90;99.90;;;;;;5044886;28;20083;-83
2021/12/24 02:38:27;;;;;;;3.88;2.55;;;7.40;99.90;;;;;;5043617;28;20070;-83
2021/12/24 02:40:54;;;;;;;3.72;2.15;;;7.30;99.90;;;;;;5045058;28;20155;-83
2021/12/24 02:43:22;;;;;;;3.08;2.03;;;9.10;99.90;;;;;;5045210;28;20044;-84
2021/12/24 02:45:50;;;;;;;3.75;1.95;;;7.00;99.90;;;;;;5042365;28;20037;-84
2021/12/24 02:56:17;;;;;;;4.15;2.58;;;7.50;99.90;;;;;;5045332;28;20049;-84
2021/12/24 02:58:46;;;;;;;3.97;2.40;;;7.50;99.90;;;;;;5041571;28;20076;-85
2021/12/24 03:01:14;;;;;;;6.22;2.55;;;7.30;99.90;;;;;;5044640;28;20068;-84
2021/12/24 03:03:40;;;;;;;4.00;2.45;;;7.30;99.90;;;;;;5043088;28;20033;-85
2021/12/24 03:06:06;;;;;;;4.60;2.70;;;8.40;99.90;;;;;;5044422;28;20064;-84
2021/12/24 03:08:33;;;;;;;6.47;2.92;;;7.40;99.90;;;;;;5043600;28;20538;-85
2021/12/24 03:10:59;;;;;;;5.07;2.58;;;7.30;99.90;;;;;;5044400;28;20530;-85
2021/12/24 03:13:27;;;;;;;4.53;2.67;;;8.00;99.90;;;;;;5043763;28;20049;-85
2021/12/24 03:15:57;;;;;;;6.13;2.65;;;9.00;99.90;;;;;;5057989;28;20921;-85
2021/12/24 03:18:28;;;;;;;9.02;3.53;;;7.30;99.90;;;;;;5044092;28;20052;-85
2021/12/24 03:21:02;;;;;;;8.20;3.67;;;7.30;99.90;;;;;;5041353;28;20087;-85
2021/12/24 03:23:40;;;;;;;7.88;3.58;;;7.40;99.90;;;;;;5043129;28;20130;-85
2021/12/24 03:26:08;;;;;;;11.20;4.15;;;7.40;99.90;;;;;;5044868;28;20120;-85
2021/12/24 03:28:34;;;;;;;15.13;3.85;;;8.90;99.90;;;;;;5040956;28;20033;-85
2021/12/24 03:31:00;;;;;;;8.63;4.20;;;7.40;99.90;;;;;;5043872;28;20064;-85
2021/12/24 03:33:27;;;;;;;11.13;4.93;;;7.40;99.90;;;;;;5040512;28;20120;-85
2021/12/24 03:35:53;;;;;;;13.63;5.15;;;7.50;99.90;;;;;;5043388;28;20091;-84
2021/12/24 03:38:19;;;;;;;17.13;5.68;;;7.40;99.90;;;;;;5041779;28;20419;-85
2021/12/24 03:40:45;;;;;;;16.38;6.00;;;7.90;99.90;;;;;;5042711;28;20044;-85
2021/12/24 03:43:10;;;;;;;19.85;6.07;;;7.50;99.90;;;;;;5042667;28;20084;-85
2021/12/24 03:45:45;;;;;;;21.80;6.07;;;8.80;99.90;;;;;;5040982;28;20051;-85
2021/12/24 03:48:19;;;;;;;19.73;5.97;;;8.80;99.90;;;;;;5043983;28;20096;-85
2021/12/24 03:51:08;;;;;;;21.75;6.10;;;7.60;99.90;;;;;;5040297;28;20409;-86
2021/12/24 03:56:15;;;;;;;23.05;6.32;;;7.60;99.90;;;;;;5043209;28;20045;-85
2021/12/24 03:58:42;;;;;;;26.35;6.90;;;7.60;99.90;;;;;;5040662;28;20056;-85
2021/12/24 04:01:08;;;;;;;22.27;7.32;;;7.80;99.90;;;;;;5044054;28;20492;-85
2021/12/24 04:03:34;;;;;;;21.90;6.95;;;9.60;99.90;;;;;;5040838;28;20428;-85
2021/12/24 04:06:00;;;;;;;26.60;6.82;;;9.60;99.90;;;;;;5042846;28;20182;-84
2021/12/24 04:08:26;;;;;;;26.20;7.65;;;7.70;99.90;;;;;;5041762;28;20056;-85
2021/12/24 04:10:52;;;;;;;31.83;7.90;;;7.70;99.90;;;;;;5041486;28;20049;-85
2021/12/24 04:13:18;;;;;;;29.00;7.65;;;9.50;99.90;;;;;;5059838;28;20073;-85
2021/12/24 04:15:44;;;;;;;33.50;8.20;;;8.30;99.90;;;;;;5023931;28;20076;-85
2021/12/24 04:18:23;;;;;;;41.30;8.50;;;8.30;99.90;;;;;;5043332;28;20049;-85
2021/12/24 04:26:18;;;;;;;29.00;7.63;;;7.90;99.90;;;;;;5043228;28;20080;-83
2021/12/24 04:28:44;;;;;;;25.05;7.05;;;9.20;99.90;;;;;;5023271;28;20045;-83
2021/12/24 04:31:10;;;;;;;26.80;7.30;;;7.50;99.90;;;;;;5043718;28;20041;-83
2021/12/24 04:33:38;;;;;;;21.98;7.85;;;8.00;99.90;;;;;;5042203;28;20459;-83
2021/12/24 04:36:46;;;;;;;37.10;7.57;;;9.50;99.90;;;;;;5042414;28;20037;-83
2021/12/24 04:39:35;;;;;;;26.27;6.95;;;8.10;99.90;;;;;;5042894;28;20149;-83
2021/12/24 05:03:44;;;;;;;33.55;12.15;;;8.40;99.90;;;;;;5044071;28;20091;-84
2021/12/24 05:06:26;;;;;;;36.28;12.57;;;8.70;99.90;;;;;;5045306;28;20060;-84
2021/12/24 05:08:58;;;;;;;37.08;12.10;;;8.40;99.90;;;;;;5047795;28;20076;-85
2021/12/24 05:11:24;;;;;;;27.58;12.40;;;9.10;99.90;;;;;;5044056;28;20053;-84
2021/12/24 05:13:53;;;;;;;34.92;12.45;;;8.50;99.90;;;;;;5049048;28;20055;-85
2021/12/24 05:19:14;;;;;;;33.20;12.40;;;8.50;99.90;;;;;;5047116;28;20053;-84
2021/12/24 05:21:33;;;;;;;33.97;12.57;;;8.50;99.90;;;;;;5046178;28;20485;-85
2021/12/24 05:24:05;;;;;;;34.78;11.82;;;8.50;99.90;;;;;;5045683;28;20056;-84
2021/12/24 05:26:32;;;;;;;29.58;11.88;;;8.50;99.90;;;;;;5048079;28;20049;-84
2021/12/24 05:28:59;;;;;;;37.45;11.82;;;8.50;99.90;;;;;;5043244;28;20446;-84
2021/12/24 05:31:26;;;;;;;34.90;12.55;;;9.00;99.90;;;;;;5029154;28;20041;-85
2021/12/24 05:33:51;;;;;;;29.67;13.30;;;8.50;99.90;;;;;;5045593;28;20048;-84
2021/12/24 05:36:17;;;;;;;37.45;13.23;;;8.50;99.90;;;;;;5044499;28;20331;-84
2021/12/24 05:38:43;;;;;;;40.45;14.48;;;8.70;99.90;;;;;;5012150;28;20389;-84
2021/12/24 05:41:10;;;;;;;34.28;12.93;;;8.50;99.90;;;;;;5044411;28;20041;-84
2021/12/24 05:43:36;;;;;;;38.53;13.68;;;10.00;99.90;;;;;;5045886;28;20053;-84
2021/12/24 05:46:01;;;;;;;31.05;10.82;;;8.50;99.90;;;;;;5044148;28;20044;-84
2021/12/24 05:48:27;;;;;;;34.75;12.82;;;8.60;99.90;;;;;;5045292;28;20075;-84
2021/12/24 05:50:53;;;;;;;30.10;12.73;;;9.30;99.90;;;;;;5043073;28;20092;-84
2021/12/24 05:53:19;;;;;;;29.58;11.45;;;9.70;99.90;;;;;;5011194;28;20056;-83
2021/12/24 05:55:45;;;;;;;30.17;11.52;;;8.60;99.90;;;;;;5028762;28;20091;-84
2021/12/24 05:58:12;;;;;;;33.47;12.02;;;8.60;99.90;;;;;;5026713;28;20051;-84
2021/12/24 06:00:39;;;;;;;30.48;10.95;;;8.60;99.90;;;;;;5045885;28;20045;-84
2021/12/24 06:03:09;;;;;;;36.30;10.63;;;8.60;99.90;;;;;;5042152;28;20123;-84
2021/12/24 06:05:37;;;;;;;21.48;9.57;;;10.50;99.90;;;;;;5046256;28;20052;-84
2021/12/24 06:08:03;;;;;;;30.10;11.02;;;8.60;99.90;;;;;;5044835;28;20405;-84
2021/12/24 06:10:29;;;;;;;28.75;9.38;;;8.60;99.90;;;;;;5027704;28;20132;-84
2021/12/24 06:12:56;;;;;;;30.42;9.20;;;8.60;99.90;;;;;;5027159;28;20139;-84
2021/12/24 06:15:25;;;;;;;25.63;9.45;;;9.40;99.90;;;;;;5058449;28;20081;-84
2021/12/24 06:17:54;;;;;;;25.92;8.23;;;8.60;99.90;;;;;;5045897;28;20053;-84
2021/12/24 06:20:20;;;;;;;18.15;8.05;;;8.60;99.90;;;;;;5058633;28;20534;-85
2021/12/24 06:22:47;;;;;;;26.38;7.45;;;8.60;99.90;;;;;;5046226;28;20095;-85
2021/12/24 06:25:13;;;;;;;22.20;7.43;;;8.50;99.90;;;;;;5043319;28;20436;-85
2021/12/24 06:27:39;;;;;;;26.52;6.88;;;8.60;99.90;;;;;;5026227;28;20049;-84
2021/12/24 06:30:08;;;;;;;22.60;6.90;;;9.80;99.90;;;;;;5044143;28;20046;-84
2021/12/24 06:32:34;;;;;;;20.77;6.25;;;8.60;99.90;;;;;;5041518;28;20098;-84
2021/12/24 06:34:59;;;;;;;17.65;6.32;;;8.60;99.90;;;;;;5061670;28;20127;-84
2021/12/24 06:37:25;;;;;;;24.00;6.20;;;9.00;99.90;;;;;;5042028;28;20045;-85
2021/12/24 06:39:51;;;;;;;20.83;6.50;;;10.30;99.90;;;;;;5044518;28;20439;-83
2021/12/24 06:42:17;;;;;;;17.00;6.47;;;8.50;99.90;;;;;;5043041;28;20076;-83
2021/12/24 06:44:43;;;;;;;13.50;6.07;;;8.50;99.90;;;;;;5042640;28;20076;-84
2021/12/24 06:47:09;;;;;;;21.13;5.53;;;8.50;99.90;;;;;;5044004;28;20120;-83
2021/12/24 06:49:35;;;;;;;19.98;6.03;;;8.70;99.90;;;;;;5058027;28;20513;-82
2021/12/24 06:52:01;;;;;;;18.83;5.50;;;9.30;99.90;;;;;;5044038;28;20541;-86
2021/12/24 06:54:27;;;;;;;15.38;5.70;;;8.50;99.90;;;;;;5024252;28;20053;-86
2021/12/24 06:56:53;;;;;;;20.50;4.80;;;8.90;99.90;;;;;;5043951;28;20086;-86
2021/12/24 06:59:18;;;;;;;19.70;5.60;;;8.50;99.90;;;;;;5025192;28;20102;-86
2021/12/24 07:01:44;;;;;;;19.75;5.13;;;10.50;99.90;;;;;;5042482;28;20083;-89
2021/12/24 07:04:10;;;;;;;24.10;5.82;;;7.80;99.90;;;;;;5026633;28;20084;-85
2021/12/24 07:06:39;;;;;;;22.45;5.68;;;10.30;99.90;;;;;;5024384;28;20044;-85
2021/12/24 07:09:04;;;;;;;25.88;5.70;;;9.00;99.90;;;;;;5044469;28;20045;-85
2021/12/24 07:11:30;;;;;;;18.27;5.93;;;9.00;99.90;;;;;;5023469;28;20627;-87
2021/12/24 07:13:56;;;;;;;23.17;5.45;;;10.00;99.90;;;;;;5045218;28;20086;-87
2021/12/24 07:16:21;;;;;;;21.25;5.85;;;8.40;99.90;;;;;;5042629;28;20037;-90
2021/12/24 07:18:47;;;;;;;27.33;6.35;;;8.40;99.90;;;;;;5026149;28;20033;-86
2021/12/24 07:21:13;;;;;;;26.75;6.50;;;9.00;99.90;;;;;;5042628;28;20044;-88
2021/12/24 07:23:39;;;;;;;25.10;5.15;;;8.80;99.90;;;;;;5041504;28;20056;-88
2021/12/24 07:26:05;;;;;;;21.77;5.15;;;8.40;99.90;;;;;;5044139;28;20056;-87
2021/12/24 07:28:31;;;;;;;13.25;5.18;;;8.60;99.90;;;;;;5041177;28;20063;-88
2021/12/24 07:30:56;;;;;;;19.58;4.68;;;8.30;99.90;;;;;;5044298;28;20079;-86
2021/12/24 07:33:22;;;;;;;12.15;4.15;;;8.20;99.90;;;;;;5041851;28;20048;-87
2021/12/24 07:35:48;;;;;;;13.18;4.50;;;8.20;99.90;;;;;;5044209;28;20500;-87
2021/12/24 07:38:14;;;;;;;10.27;2.78;;;8.10;99.90;;;;;;5043755;28;20519;-86
2021/12/24 07:40:44;;;;;;;9.20;2.60;;;8.10;99.90;;;;;;5024896;28;20044;-88
2021/12/24 07:43:10;;;;;;;5.60;2.88;;;9.70;99.90;;;;;;5027638;28;20373;-87
2021/12/24 07:45:38;;;;;;;10.85;3.20;;;8.00;99.90;;;;;;5024212;28;20124;-86
2021/12/24 07:48:15;;;;;;;14.77;3.38;;;7.90;99.90;;;;;;5027187;28;20743;-87
2021/12/24 07:53:14;;;;;;;8.15;3.30;;;10.00;99.90;;;;;;5042111;28;20492;-88
2021/12/24 07:55:41;;;;;;;13.30;4.03;;;7.90;99.90;;;;;;5043802;28;20045;-94
2021/12/24 07:58:08;;;;;;;6.40;3.75;;;7.90;99.90;;;;;;5023661;28;20048;-90
2021/12/24 08:00:38;;;;;;;13.80;4.25;;;7.90;99.90;;;;;;5043817;28;20123;-90
2021/12/24 08:03:04;;;;;;;12.55;5.15;;;8.10;99.90;;;;;;5023448;28;20045;-87
2021/12/24 08:05:32;;;;;;;9.00;4.35;;;7.90;99.90;;;;;;5026941;28;20094;-85
2021/12/24 08:07:58;;;;;;;16.10;5.68;;;7.90;99.90;;;;;;5041820;28;20401;-90
2021/12/24 08:10:25;;;;;;;13.63;4.53;;;7.90;99.90;;;;;;5025406;28;20033;-91
2021/12/24 08:12:51;;;;;;;10.65;4.10;;;9.40;99.90;;;;;;5026381;28;20045;-88
2021/12/24 08:15:17;;;;;;;6.25;3.65;;;10.00;99.90;;;;;;5023739;28;20037;-86
2021/12/24 08:17:45;;;;;;;14.43;3.97;;;8.80;99.90;;;;;;5026986;28;20489;-87
2021/12/24 08:20:13;;;;;;;12.77;5.18;;;8.00;99.90;;;;;;5023713;28;20056;-91
2021/12/24 08:22:39;;;;;;;11.55;4.53;;;9.00;99.90;;;;;;5026465;28;20048;-88
2021/12/24 08:25:07;;;;;;;11.85;5.05;;;9.80;99.90;;;;;;5041649;28;20045;-92
2021/12/24 08:27:34;;;;;;;13.70;4.38;;;8.00;99.90;;;;;;5024968;28;20136;-89
2021/12/24 08:30:00;;;;;;;12.98;5.03;;;8.00;99.90;;;;;;5042923;28;20102;-89
2021/12/24 08:32:26;;;;;;;19.75;4.97;;;8.10;99.90;;;;;;5040010;28;20044;-90
2021/12/24 08:34:53;;;;;;;13.13;5.43;;;8.10;99.90;;;;;;5026864;28;20056;-88
2021/12/24 08:37:19;;;;;;;13.13;4.97;;;9.30;99.90;;;;;;5026010;28;20076;-89
2021/12/24 08:39:44;;;;;;;17.35;4.78;;;9.70;99.90;;;;;;5030259;28;20382;-90
2021/12/24 08:42:10;;;;;;;15.93;5.22;;;8.10;99.90;;;;;;5028556;28;20052;-90
2021/12/24 08:44:37;;;;;;;11.60;4.78;;;8.10;99.90;;;;;;5028984;28;20128;-90
2021/12/24 08:47:05;;;;;;;16.38;5.72;;;9.20;99.90;;;;;;5030102;28;20484;-89
2021/12/24 08:49:31;;;;;;;13.48;4.78;;;8.10;99.90;;;;;;5043255;28;20133;-88
2021/12/24 08:51:58;;;;;;;18.98;4.82;;;9.80;99.90;;;;;;5030101;28;20136;-90
2021/12/24 08:54:25;;;;;;;12.95;4.97;;;9.30;99.90;;;;;;5043810;28;20041;-91
2021/12/24 08:56:52;;;;;;;14.65;5.68;;;8.20;99.90;;;;;;5029912;28;20558;-88
2021/12/24 08:59:18;;;;;;;18.67;6.15;;;8.10;99.90;;;;;;5028619;28;20052;-88
2021/12/24 09:01:44;;;;;;;18.33;5.32;;;10.20;99.90;;;;;;5028395;28;20389;-89
2021/12/24 09:04:12;;;;;;;15.60;5.22;;;8.30;99.90;;;;;;5030132;28;20124;-87
2021/12/24 09:06:38;;;;;;;19.08;6.05;;;8.80;99.90;;;;;;5043335;28;20049;-88
2021/12/24 09:09:06;;;;;;;11.65;5.38;;;8.80;99.90;;;;;;5046745;28;20060;-88
2021/12/24 09:11:37;;;;;;;15.40;4.95;;;8.10;99.90;;;;;;5028954;28;20493;-90
2021/12/24 09:14:03;;;;;;;14.18;5.00;;;8.10;99.90;;;;;;5053392;28;20045;-87
2021/12/24 09:16:31;;;;;;;22.13;5.55;;;8.10;99.90;;;;;;5032595;28;20041;-87
2021/12/24 09:19:03;;;;;;;7.80;3.22;;;8.10;99.90;;;;;;5047279;28;20055;-89
2021/12/24 09:21:29;;;;;;;6.10;2.47;;;9.60;99.90;;;;;;5034765;28;20029;-90
2021/12/24 09:23:57;;;;;;;4.30;2.35;;;8.00;99.90;;;;;;5047901;28;20048;-88
2021/12/24 09:26:28;;;;;;;4.25;1.83;;;9.50;99.90;;;;;;5031024;28;20055;-89
2021/12/24 09:28:56;;;;;;;4.20;2.47;;;8.40;99.90;;;;;;5044850;28;20435;-88
2021/12/24 09:31:22;;;;;;;2.40;1.30;;;7.50;99.90;;;;;;5046846;28;20049;-88
2021/12/24 09:33:48;;;;;;;2.38;1.52;;;7.30;99.90;;;;;;5030495;28;20045;-90
2021/12/24 09:36:14;;;;;;;2.05;1.60;;;7.70;99.90;;;;;;5044430;28;20668;-90
2021/12/24 09:38:40;;;;;;;3.75;1.83;;;7.00;99.90;;;;;;5030395;28;20044;-90
2021/12/24 09:41:06;;;;;;;3.60;1.35;;;6.90;99.90;;;;;;5026155;28;20051;-91
2021/12/24 09:43:31;;;;;;;3.33;2.17;;;6.80;99.90;;;;;;5029939;28;20037;-90
2021/12/24 09:45:57;;;;;;;3.83;1.80;;;6.80;99.90;;;;;;5026539;28;20045;-89
2021/12/24 09:48:23;;;;;;;3.67;1.92;;;6.70;99.90;;;;;;5044283;28;20045;-91
2021/12/24 09:50:49;;;;;;;3.30;2.10;;;6.70;99.90;;;;;;5044497;28;20448;-89
2021/12/24 09:53:14;;;;;;;3.00;2.15;;;6.60;99.90;;;;;;5026514;28;20056;-88
2021/12/24 09:55:41;;;;;;;4.60;2.03;;;8.50;99.90;;;;;;5046109;28;20049;-89
2021/12/24 09:58:07;;;;;;;6.25;1.80;;;7.60;99.90;;;;;;5025449;28;20045;-90
2021/12/24 10:00:32;;;;;;;5.25;2.00;;;7.20;99.90;;;;;;5029188;28;20048;-90
2021/12/24 10:02:59;;;;;;;2.20;1.67;;;8.30;99.90;;;;;;5025513;28;20483;-90
2021/12/24 10:05:31;;;;;;;5.95;1.55;;;6.50;99.90;;;;;;5044608;28;20041;-89
2021/12/24 10:08:19;;;;;;;3.15;1.75;;;8.40;99.90;;;;;;5027038;28;20123;-89
2021/12/24 10:10:49;;;;;;;2.08;1.45;;;6.50;99.90;;;;;;5025038;28;20045;-88
2021/12/24 10:13:32;;;;;;;4.35;1.88;;;8.30;99.90;;;;;;5028812;28;20100;-90
2021/12/24 10:16:17;;;;;;;3.47;1.92;;;6.50;99.90;;;;;;5026813;28;20049;-89
2021/12/24 10:18:46;;;;;;;2.47;1.38;;;6.50;99.90;;;;;;5027444;28;20056;-88
2021/12/24 10:21:24;;;;;;;4.90;1.65;;;6.40;99.90;;;;;;5029199;28;20048;-89
2021/12/24 10:23:54;;;;;;;3.50;1.83;;;6.40;99.90;;;;;;5026392;28;20041;-90
2021/12/24 10:26:33;;;;;;;2.80;1.70;;;6.40;99.90;;;;;;5029713;28;20489;-85
2021/12/24 10:29:10;;;;;;;2.75;1.58;;;8.70;99.90;;;;;;5026626;28;20365;-89
2021/12/24 10:31:54;;;;;;;1.88;1.30;;;6.40;99.90;;;;;;5026833;28;20132;-89
2021/12/24 10:34:32;;;;;;;3.78;1.90;;;6.40;99.90;;;;;;5028773;28;20041;-88
2021/12/24 10:37:04;;;;;;;2.80;1.90;;;6.30;99.90;;;;;;5024732;28;20044;-91
2021/12/24 10:39:34;;;;;;;4.38;1.80;;;6.30;99.90;;;;;;5028289;28;20091;-95
2021/12/24 10:42:03;;;;;;;3.17;1.70;;;6.30;99.90;;;;;;5026807;28;20080;-92
2021/12/24 10:44:34;;;;;;;7.20;1.88;;;6.30;99.90;;;;;;5027281;28;20049;-90
2021/12/24 10:47:20;;;;;;;3.50;2.17;;;6.30;99.90;;;;;;5029935;28;20040;-92
2021/12/24 10:55:25;;;;;;;4.70;2.33;;;6.10;99.90;;;;;;5044954;28;20543;-92
2021/12/24 10:57:53;;;;;;;4.10;2.10;;;6.10;99.90;;;;;;5025891;28;20049;-95
2021/12/24 11:00:23;;;;;;;4.25;1.80;;;6.20;99.90;;;;;;5029502;28;20084;-93
2021/12/24 11:03:00;;;;;;;3.45;2.05;;;6.10;99.90;;;;;;5025531;28;20051;-93
2021/12/24 11:05:36;;;;;;;4.28;2.25;;;6.10;99.90;;;;;;5028643;28;20458;-93
2021/12/24 11:08:05;;;;;;;3.97;2.30;;;6.00;99.90;;;;;;5027717;28;20574;-92
2021/12/24 11:10:35;;;;;;;3.28;2.20;;;6.10;99.90;;;;;;5024715;28;20055;-89
2021/12/24 11:13:08;;;;;;;3.67;1.88;;;6.00;99.90;;;;;;5029188;28;20041;-93
2021/12/24 11:15:47;;;;;;;2.63;1.80;;;6.00;99.90;;;;;;5041756;28;20040;-92
2021/12/24 11:18:14;;;;;;;5.88;1.98;;;6.00;99.90;;;;;;5027496;28;20040;-92
2021/12/24 11:20:41;;;;;;;4.88;1.83;;;5.90;99.90;;;;;;5027021;28;20075;-90
2021/12/24 11:23:15;;;;;;;3.10;1.77;;;6.60;99.90;;;;;;5042427;28;20102;-91
2021/12/24 11:25:44;;;;;;;4.90;2.15;;;5.90;99.90;;;;;;5027945;28;20131;-89
2021/12/24 11:28:13;;;;;;;2.63;1.48;;;6.70;99.90;;;;;;5024881;28;20488;-93
2021/12/24 11:30:42;;;;;;;6.20;1.80;;;5.90;99.90;;;;;;5027831;28;20060;-91
2021/12/24 11:33:16;;;;;;;3.20;1.55;;;7.40;99.90;;;;;;5042022;28;20076;-89
2021/12/24 11:35:44;;;;;;;2.78;1.65;;;5.90;99.90;;;;;;5025965;28;20037;-93
2021/12/24 11:38:18;;;;;;;3.60;1.58;;;5.90;99.90;;;;;;5027453;28;20037;-91
2021/12/24 11:40:49;;;;;;;7.00;2.47;;;5.90;99.90;;;;;;5023445;28;20131;-92
2021/12/24 11:43:17;;;;;;;3.85;1.85;;;5.90;99.90;;;;;;5027741;28;20377;-87
2021/12/24 11:45:43;;;;;;;8.73;1.77;;;6.90;99.90;;;;;;5041455;28;20048;-91
2021/12/24 11:48:09;;;;;;;7.18;2.05;;;5.90;99.90;;;;;;5044584;28;20488;-93
2021/12/24 11:50:35;;;;;;;4.30;2.20;;;5.90;99.90;;;;;;5029849;28;20056;-92
2021/12/24 11:53:08;;;;;;;2.83;1.80;;;6.80;99.90;;;;;;5030644;28;20053;-95
2021/12/24 11:55:44;;;;;;;7.65;2.13;;;6.10;99.90;;;;;;5034197;28;20386;-91
2021/12/24 11:58:20;;;;;;;3.55;2.22;;;5.90;99.90;;;;;;5030783;28;20041;-91
2021/12/24 12:00:51;;;;;;;4.07;2.25;;;5.90;99.90;;;;;;5033257;28;20041;-93
2021/12/24 12:03:32;;;;;;;6.07;1.85;;;6.20;99.90;;;;;;5031771;28;20463;-94
2021/12/24 12:05:59;;;;;;;3.83;2.20;;;5.90;99.90;;;;;;5028389;28;20558;-90
2021/12/24 12:08:33;;;;;;;6.00;2.10;;;5.90;99.90;;;;;;5029470;28;20059;-92
2021/12/24 12:11:13;;;;;;;6.82;2.20;;;6.00;99.90;;;;;;5025776;28;20136;-92
2021/12/24 12:14:02;;;;;;;4.00;2.15;;;6.00;99.90;;;;;;5030886;28;20045;-81
2021/12/24 12:16:55;;;;;;;2.58;1.75;;;6.00;99.90;;;;;;5047637;28;20059;-92
2021/12/24 12:19:39;;;;;;;3.33;1.90;;;7.50;99.90;;;;;;5030706;28;20509;-92
2021/12/24 12:22:13;;;;;;;;;;;6.00;99.90;;;;;;5049036;28;20080;-89
2021/12/24 12:27:33;;;;;;;3.70;2.08;;;6.10;99.90;;;;;;5046442;28;20056;-90
2021/12/24 12:30:27;;;;;;;8.57;4.60;;;6.10;99.90;;;;;;5031337;28;20476;-89
2021/12/24 12:33:13;;;;;;;7.05;3.55;;;8.30;99.90;;;;;;5044904;28;20037;-91
2021/12/24 12:35:39;;;;;;;5.68;2.92;;;6.10;99.90;;;;;;5029759;28;20048;-89
2021/12/24 12:38:48;;;;;;;4.85;2.55;;;6.20;99.90;;;;;;5030024;28;20041;-90
2021/12/24 12:41:34;;;;;;;4.38;2.33;;;6.20;99.90;;;;;;5044576;28;20664;-91
2021/12/24 12:44:06;;;;;;;2.63;1.98;;;6.20;99.90;;;;;;5030790;28;20049;-91
2021/12/24 12:46:35;;;;;;;4.85;1.75;;;6.30;99.90;;;;;;5046527;28;20570;-91
2021/12/24 12:49:05;;;;;;;2.90;1.80;;;6.50;99.90;;;;;;5046596;28;20056;-96
2021/12/24 12:52:02;;;;;;;2.75;2.08;;;6.30;99.90;;;;;;5031584;28;20139;-90
2021/12/24 12:54:35;;;;;;;2.90;2.00;;;6.40;99.90;;;;;;5028545;28;20045;-91
2021/12/24 12:57:10;;;;;;;2.40;1.52;;;6.40;99.90;;;;;;5030703;28;20041;-91
2021/12/24 12:59:36;;;;;;;3.40;1.80;;;6.50;99.90;;;;;;5030934;28;20130;-83
2021/12/24 13:02:02;;;;;;;2.70;2.08;;;7.30;99.90;;;;;;5030453;28;20046;-96
2021/12/24 13:04:28;;;;;;;2.95;1.77;;;6.50;99.90;;;;;;5033331;28;20119;-88
2021/12/24 13:06:56;;;;;;;2.83;2.00;;;7.40;99.90;;;;;;5029043;28;20048;-89
2021/12/24 13:09:33;;;;;;;2.60;1.92;;;6.50;99.90;;;;;;5030879;28;20304;-91
2021/12/24 13:12:00;;;;;;;3.88;2.15;;;6.60;99.90;;;;;;5045713;28;20107;-93
2021/12/24 13:14:29;;;;;;;5.22;2.65;;;6.60;99.90;;;;;;5031130;28;20070;-91
2021/12/24 13:22:36;;;;;;;3.88;2.55;;;6.60;99.90;;;;;;5050477;28;20059;-93
2021/12/24 13:25:14;;;;;;;3.33;2.22;;;6.60;99.90;;;;;;5031883;28;20041;-90
2021/12/24 13:27:47;;;;;;;3.38;1.67;;;6.60;99.90;;;;;;5047212;28;20099;-93
2021/12/24 13:30:24;;;;;;;2.80;2.03;;;6.60;99.90;;;;;;5033637;28;20391;-93
2021/12/24 13:33:00;;;;;;;4.60;2.35;;;6.60;99.90;;;;;;5029822;28;20056;-91
2021/12/24 13:35:52;;;;;;;3.35;2.08;;;6.60;99.90;;;;;;5033371;28;20057;-94
2021/12/24 13:38:26;;;;;;;3.63;2.75;;;7.90;99.90;;;;;;5015484;28;20056;-95
2021/12/24 13:40:52;;;;;;;4.32;1.90;;;6.60;99.90;;;;;;5028430;28;20118;-95
2021/12/24 13:43:19;;;;;;;3.00;2.00;;;6.60;99.90;;;;;;5049868;28;20041;-95
2021/12/24 13:45:52;;;;;;;2.90;1.90;;;7.70;99.90;;;;;;5027960;28;20107;-91
2021/12/24 13:48:25;;;;;;;2.45;2.05;;;7.00;99.90;;;;;;5048207;28;20504;-94
2021/12/24 13:56:18;;;;;;;3.85;1.92;;;6.60;99.90;;;;;;5048470;28;20048;-95
2021/12/24 13:58:56;;;;;;;4.00;2.25;;;7.60;99.90;;;;;;5027645;28;20079;-92
2021/12/24 14:01:26;;;;;;;5.85;1.90;;;6.60;99.90;;;;;;5047301;28;20354;-93
2021/12/24 14:03:52;;;;;;;4.50;2.30;;;6.50;99.90;;;;;;5034334;28;20052;-96
2021/12/24 14:06:19;;;;;;;5.78;2.75;;;7.20;99.90;;;;;;5054722;28;20048;-94
2021/12/24 14:08:44;;;;;;;4.35;2.55;;;7.90;99.90;;;;;;5024638;28;20049;-92
2021/12/24 14:11:13;;;;;;;6.60;2.33;;;6.50;99.90;;;;;;5054737;28;20052;-96
2021/12/24 14:13:50;;;;;;;2.95;1.80;;;7.60;99.90;;;;;;5040804;28;20036;-96
2021/12/24 14:19:15;;;;;;;4.05;1.60;;;6.50;99.90;;;;;;5052098;28;20135;-96
2021/12/24 14:21:50;;;;;;;1.92;1.25;;;7.30;99.90;;;;;;5037022;28;20088;-96
2021/12/24 14:24:36;;;;;;;3.65;0.90;;;6.50;99.90;;;;;;5053473;28;20056;-96
2021/12/24 14:27:08;;;;;;;1.88;0.90;;;7.70;99.90;;;;;;5046231;28;20045;-96
2021/12/24 14:29:41;;;;;;;3.15;0.80;;;6.40;99.90;;;;;;5040917;28;20033;-96
2021/12/24 14:32:27;;;;;;;2.88;0.90;;;6.40;99.90;;;;;;5042094;28;20048;-96
2021/12/24 14:34:55;;;;;;;1.13;0.70;;;6.40;99.90;;;;;;5040042;28;20044;-92
2021/12/24 14:37:32;;;;;;;5.28;0.60;;;8.30;99.90;;;;;;5044581;28;20041;-96
2021/12/24 14:40:18;;;;;;;2.88;0.60;;;6.40;99.90;;;;;;5033360;28;20044;-96
2021/12/24 14:42:50;;;;;;;0.60;0.30;;;6.30;99.90;;;;;;5038457;28;20041;-96
2021/12/24 14:45:26;;;;;;;3.28;0.50;;;6.40;99.90;;;;;;5045310;28;20045;-96
2021/12/24 14:48:13;;;;;;;1.80;0.40;;;6.30;99.90;;;;;;5045302;28;20041;-96
2021/12/24 14:51:04;;;;;;;2.28;0.70;;;6.30;99.90;;;;;;5041128;28;20083;-96